createdAt,value
2019-04-24T00:02:22.131Z,13.80
2019-04-24T00:04:45.363Z,13.90
2019-04-24T00:10:02.730Z,14.00
2019-04-24T00:12:16.262Z,13.70
2019-04-24T00:14:55.003Z,13.30
2019-04-24T00:17:12.727Z,13.50
2019-04-24T00:19:39.398Z,13.50
2019-04-24T00:22:22.845Z,13.40
2019-04-24T00:24:57.696Z,13.30
2019-04-24T00:27:13.545Z,13.30
2019-04-24T00:29:42.817Z,13.40
2019-04-24T00:32:13.573Z,13.40
2019-04-24T00:35:02.040Z,13.50
2019-04-24T00:37:14.971Z,13.60
2019-04-24T00:39:41.592Z,13.50
2019-04-24T00:44:32.485Z,13.00
2019-04-24T00:54:41.596Z,13.50
2019-04-24T01:02:23.814Z,13.10
2019-04-24T01:05:05.467Z,13.30
2019-04-24T01:09:50.304Z,13.10
2019-04-24T01:12:17.074Z,12.70
2019-04-24T01:14:47.309Z,12.30
2019-04-24T01:20:02.763Z,12.50
2019-04-24T01:22:26.034Z,12.70
2019-04-24T01:24:54.027Z,13.10
2019-04-24T01:27:15.883Z,13.40
2019-04-24T01:29:50.877Z,13.20
2019-04-24T01:32:20.680Z,13.30
2019-04-24T01:34:51.969Z,13.40
2019-04-24T01:37:30.616Z,13.30
2019-04-24T01:39:45.144Z,13.60
2019-04-24T01:42:20.634Z,13.50
2019-04-24T01:44:46.316Z,13.60
2019-04-24T01:47:26.581Z,13.50
2019-04-24T01:54:44.399Z,13.30
2019-04-24T01:57:11.283Z,13.40
2019-04-24T02:02:10.340Z,13.50
2019-04-24T02:07:08.889Z,13.50
2019-04-24T02:09:52.134Z,13.50
2019-04-24T02:12:08.144Z,13.70
2019-04-24T02:14:40.876Z,13.80
2019-04-24T02:17:09.692Z,13.50
2019-04-24T02:21:59.443Z,13.10
2019-04-24T02:24:30.080Z,13.20
2019-04-24T02:26:59.547Z,13.00
2019-04-24T02:32:05.637Z,13.00
2019-04-24T02:34:18.826Z,13.20
2019-04-24T02:37:13.521Z,13.40
2019-04-24T02:39:41.840Z,13.60
2019-04-24T02:44:57.427Z,13.50
2019-04-24T02:46:57.190Z,13.60
2019-04-24T02:57:15.939Z,13.90
2019-04-24T03:02:07.377Z,13.50
2019-04-24T03:04:35.675Z,13.30
2019-04-24T03:09:14.326Z,13.40
2019-04-24T03:12:11.522Z,13.50
2019-04-24T03:14:29.580Z,13.30
2019-04-24T03:22:09.350Z,13.10
2019-04-24T03:24:26.412Z,13.30
2019-04-24T03:27:09.294Z,13.30
2019-04-24T03:29:27.065Z,13.20
2019-04-24T03:32:10.811Z,13.10
2019-04-24T03:46:32.373Z,13.40
2019-04-24T03:54:21.944Z,13.60
2019-04-24T03:56:28.613Z,13.80
2019-04-24T03:59:13.352Z,13.80
2019-04-24T04:04:28.767Z,13.70
2019-04-24T04:11:49.511Z,13.40
2019-04-24T04:16:39.386Z,13.60
2019-04-24T04:19:12.311Z,13.90
2019-04-24T04:24:05.613Z,14.00
2019-04-24T04:26:43.908Z,14.10
2019-04-24T04:31:31.861Z,13.70
2019-04-24T04:41:29.711Z,13.80
2019-04-24T04:49:57.003Z,14.20
2019-04-24T04:53:48.625Z,14.30
2019-04-24T04:58:55.303Z,13.50
2019-04-24T05:01:19.991Z,13.80
2019-04-24T05:21:44.953Z,13.60
2019-04-24T05:24:39.007Z,13.70
2019-04-24T05:27:04.887Z,13.80
2019-04-24T05:31:33.051Z,13.60
2019-04-24T05:34:02.214Z,13.80
2019-04-24T05:36:29.810Z,14.10
2019-04-24T05:41:24.707Z,14.00
2019-04-24T05:46:39.501Z,14.00
2019-04-24T05:48:50.343Z,14.20
2019-04-24T05:51:17.211Z,13.80
2019-04-24T05:53:51.948Z,13.50
2019-04-24T05:56:28.666Z,13.50
2019-04-24T05:58:41.424Z,14.00
2019-04-24T06:01:17.233Z,14.20
2019-04-24T06:06:26.139Z,14.30
2019-04-24T06:08:31.864Z,14.30
2019-04-24T06:11:13.366Z,14.30
2019-04-24T06:21:04.166Z,14.60
2019-04-24T06:23:50.274Z,14.00
2019-04-24T06:26:16.790Z,14.40
2019-04-24T06:29:12.928Z,14.60
2019-04-24T06:31:04.276Z,14.10
2019-04-24T06:33:41.439Z,13.90
2019-04-24T06:38:25.530Z,14.10
2019-04-24T06:45:45.551Z,14.10
2019-04-24T06:48:19.640Z,14.40
2019-04-24T06:51:01.587Z,14.20
2019-04-24T06:58:20.848Z,14.30
2019-04-24T07:00:53.165Z,14.30
2019-04-24T07:03:27.975Z,14.50
2019-04-24T07:05:47.395Z,14.20
2019-04-24T07:07:52.402Z,14.00
2019-04-24T07:13:23.001Z,14.20
2019-04-24T07:18:15.362Z,14.70
2019-04-24T07:20:57.030Z,14.90
2019-04-24T07:23:07.605Z,14.60
2019-04-24T07:25:58.469Z,14.60
2019-04-24T07:28:07.549Z,14.90
2019-04-24T07:30:42.229Z,14.90
2019-04-24T07:35:53.285Z,14.60
2019-04-24T07:45:48.707Z,15.00
2019-04-24T07:48:10.391Z,14.60
2019-04-24T07:50:56.051Z,14.60
2019-04-24T07:53:22.021Z,14.80
2019-04-24T07:58:19.934Z,15.10
2019-04-24T08:00:42.225Z,14.60
2019-04-24T08:03:02.045Z,15.00
2019-04-24T08:05:32.038Z,14.40
2019-04-24T08:08:27.201Z,14.70
2019-04-24T08:10:31.646Z,15.30
2019-04-24T08:12:59.257Z,15.60
2019-04-24T08:20:44.546Z,14.90
2019-04-24T08:22:55.312Z,14.40
2019-04-24T08:25:26.794Z,14.60
2019-04-24T08:28:05.401Z,14.90
2019-04-24T08:30:32.991Z,15.40
2019-04-24T08:32:57.541Z,15.30
2019-04-24T08:35:33.709Z,15.10
2019-04-24T08:38:10.418Z,15.40
2019-04-24T08:45:29.214Z,16.40
2019-04-24T08:48:12.372Z,16.00
2019-04-24T08:51:02.698Z,15.90
2019-04-24T08:53:02.548Z,15.90
2019-04-24T08:55:36.582Z,16.50
2019-04-24T09:03:15.790Z,17.30
2019-04-24T09:05:42.337Z,17.50
2019-04-24T09:08:10.833Z,17.10
2019-04-24T09:11:02.411Z,17.10
2019-04-24T09:13:28.475Z,16.80
2019-04-24T09:15:47.517Z,16.50
2019-04-24T09:20:47.841Z,16.10
2019-04-24T09:23:18.986Z,16.30
2019-04-24T09:28:10.917Z,15.90
2019-04-24T09:30:33.582Z,15.70
2019-04-24T09:33:09.440Z,16.20
2019-04-24T09:36:00.256Z,16.20
2019-04-24T09:38:10.223Z,16.70
2019-04-24T09:41:00.342Z,16.80
2019-04-24T09:48:16.441Z,17.50
2019-04-24T09:50:53.971Z,17.20
2019-04-24T09:55:48.238Z,18.20
2019-04-24T09:58:22.096Z,18.80
2019-04-24T10:03:18.819Z,18.30
2019-04-24T10:05:54.364Z,18.30
2019-04-24T10:08:14.690Z,17.70
2019-04-24T10:10:42.230Z,17.90
2019-04-24T10:15:42.165Z,17.90
2019-04-24T10:18:03.155Z,18.20
2019-04-24T10:20:28.857Z,18.50
2019-04-24T10:25:38.352Z,19.60
2019-04-24T10:28:02.348Z,19.20
2019-04-24T10:30:37.366Z,19.20
2019-04-24T10:32:57.324Z,19.90
2019-04-24T10:35:34.077Z,20.30
2019-04-24T10:38:21.953Z,20.00
2019-04-24T10:40:26.319Z,20.30
2019-04-24T10:42:52.058Z,19.60
2019-04-24T10:45:22.814Z,20.20
2019-04-24T10:48:00.789Z,20.30
2019-04-24T10:50:21.469Z,20.10
2019-04-24T10:52:51.671Z,19.80
2019-04-24T10:55:27.076Z,20.50
2019-04-24T11:00:13.739Z,19.60
2019-04-24T11:02:47.814Z,19.80
2019-04-24T11:05:25.423Z,20.50
2019-04-24T11:07:55.400Z,20.90
2019-04-24T11:12:53.793Z,20.90
2019-04-24T11:15:16.265Z,20.80
2019-04-24T11:17:40.133Z,20.40
2019-04-24T11:20:07.507Z,19.60
2019-04-24T11:22:43.579Z,20.00
2019-04-24T11:25:17.988Z,19.90
2019-04-24T11:27:36.458Z,20.50
2019-04-24T11:30:07.620Z,21.10
2019-04-24T11:37:31.470Z,21.40
2019-04-24T11:42:30.602Z,21.70
2019-04-24T11:45:04.117Z,21.90
2019-04-24T11:47:39.408Z,22.00
2019-04-24T11:52:33.974Z,21.70
2019-04-24T11:55:07.249Z,21.90
2019-04-24T11:59:26.946Z,21.40
2019-04-24T12:04:47.474Z,21.20
2019-04-24T12:07:11.734Z,22.10
2019-04-24T12:09:43.862Z,22.20
2019-04-24T12:12:26.033Z,21.80
2019-04-24T12:14:40.139Z,21.50
2019-04-24T12:17:15.156Z,21.80
2019-04-24T12:19:52.697Z,22.00
2019-04-24T12:22:08.493Z,22.10
2019-04-24T12:24:31.894Z,22.30
2019-04-24T12:26:52.963Z,22.00
2019-04-24T12:29:30.577Z,21.40
2019-04-24T12:32:05.401Z,21.60
2019-04-24T12:34:29.737Z,21.60
2019-04-24T12:37:00.202Z,21.80
2019-04-24T12:39:35.948Z,21.90
2019-04-24T12:42:02.182Z,21.50
2019-04-24T12:44:26.507Z,21.20
2019-04-24T12:47:06.462Z,21.10
2019-04-24T12:51:48.198Z,21.70
2019-04-24T12:54:40.573Z,21.60
2019-04-24T12:57:04.575Z,21.80
2019-04-24T13:04:31.377Z,22.00
2019-04-24T13:06:40.169Z,21.90
2019-04-24T13:09:30.445Z,21.90
2019-04-24T13:11:59.580Z,21.50
2019-04-24T13:14:30.958Z,21.80
2019-04-24T13:17:06.435Z,21.90
2019-04-24T13:19:23.352Z,22.10
2019-04-24T13:21:35.999Z,22.00
2019-04-24T13:24:13.207Z,22.00
2019-04-24T13:29:36.124Z,21.80
2019-04-24T13:32:05.026Z,21.80
2019-04-24T13:39:46.380Z,22.80
2019-04-24T13:45:02.480Z,23.80
2019-04-24T13:47:09.102Z,23.70
2019-04-24T13:49:45.614Z,24.20
2019-04-24T13:52:55.144Z,24.40
2019-04-24T13:54:39.927Z,24.00
2019-04-24T13:59:56.491Z,23.50
2019-04-24T14:02:20.400Z,23.10
2019-04-24T14:10:12.522Z,22.30
2019-04-24T14:12:05.657Z,23.10
2019-04-24T14:15:06.196Z,21.70
2019-04-24T14:17:08.442Z,22.00
2019-04-24T14:20:06.150Z,21.90
2019-04-24T14:24:44.535Z,21.70
2019-04-24T14:27:23.125Z,21.80
2019-04-24T14:29:43.164Z,21.50
2019-04-24T14:32:30.061Z,21.40
2019-04-24T14:37:11.774Z,21.20
2019-04-24T14:39:44.607Z,21.20
2019-04-24T14:42:11.858Z,21.50
2019-04-24T14:44:57.396Z,21.60
2019-04-24T14:49:48.544Z,21.70
2019-04-24T14:52:16.417Z,21.10
2019-04-24T14:54:40.067Z,21.20
2019-04-24T14:57:13.170Z,21.10
2019-04-24T14:59:43.684Z,21.40
2019-04-24T15:02:37.142Z,21.50
2019-04-24T15:04:40.982Z,21.50
2019-04-24T15:07:11.491Z,21.40
2019-04-24T15:09:38.279Z,21.60
2019-04-24T15:17:15.704Z,21.10
2019-04-24T15:22:28.351Z,21.40
2019-04-24T15:27:12.800Z,21.30
2019-04-24T15:29:56.201Z,21.10
2019-04-24T15:32:28.078Z,20.80
2019-04-24T15:37:18.761Z,21.20
2019-04-24T15:39:49.266Z,21.20
2019-04-24T15:42:14.365Z,21.10
2019-04-24T15:44:48.417Z,20.80
2019-04-24T15:47:26.195Z,20.90
2019-04-24T15:49:44.748Z,21.00
2019-04-24T15:51:41.870Z,21.20
2019-04-24T15:54:09.391Z,21.20
2019-04-24T15:56:36.238Z,21.20
2019-04-24T15:59:23.978Z,21.30
2019-04-24T16:04:36.104Z,21.50
2019-04-24T16:06:37.362Z,21.70
2019-04-24T16:09:08.348Z,21.40
2019-04-24T16:11:38.348Z,21.40
2019-04-24T16:14:22.989Z,21.40
2019-04-24T16:17:01.417Z,21.60
2019-04-24T16:19:40.969Z,21.50
2019-04-24T16:22:00.128Z,21.40
2019-04-24T16:27:35.961Z,21.00
2019-04-24T16:29:58.542Z,21.10
2019-04-24T16:34:59.774Z,20.90
2019-04-24T16:40:15.779Z,20.80
2019-04-24T16:44:53.146Z,21.00
2019-04-24T16:47:33.919Z,21.10
2019-04-24T16:50:18.185Z,20.90
2019-04-24T16:52:15.986Z,21.20
2019-04-24T16:54:53.241Z,21.30
2019-04-24T16:57:19.655Z,21.70
2019-04-24T16:59:52.649Z,21.20
2019-04-24T17:02:12.278Z,21.20
2019-04-24T17:14:49.514Z,20.40
2019-04-24T17:17:31.857Z,20.00
2019-04-24T17:19:53.151Z,20.20
2019-04-24T17:22:12.086Z,20.40
2019-04-24T17:24:47.646Z,20.40
2019-04-24T17:27:14.931Z,20.50
2019-04-24T17:29:43.541Z,20.40
2019-04-24T17:39:09.676Z,20.70
2019-04-24T17:41:48.784Z,20.90
2019-04-24T17:44:46.941Z,21.00
2019-04-24T17:47:14.619Z,20.90
2019-04-24T17:49:38.371Z,20.30
2019-04-24T17:52:30.647Z,20.50
2019-04-24T17:54:26.868Z,20.40
2019-04-24T17:57:13.154Z,20.40
2019-04-24T17:59:18.647Z,20.50
2019-04-24T18:01:47.694Z,20.60
2019-04-24T18:04:14.563Z,20.10
2019-04-24T18:06:42.345Z,20.00
2019-04-24T18:09:09.363Z,19.60
2019-04-24T18:11:43.827Z,19.80
2019-04-24T18:14:09.092Z,20.00
2019-04-24T18:16:38.166Z,20.10
2019-04-24T18:19:08.709Z,19.90
2019-04-24T18:21:39.698Z,19.90
2019-04-24T18:24:08.908Z,19.80
2019-04-24T18:26:35.757Z,19.90
2019-04-24T18:29:03.822Z,20.00
2019-04-24T18:31:34.582Z,19.70
2019-04-24T18:34:13.997Z,19.50
2019-04-24T18:36:44.285Z,19.50
2019-04-24T18:39:13.127Z,19.40
2019-04-24T18:41:42.343Z,19.50
2019-04-24T18:44:10.389Z,19.10
2019-04-24T18:46:39.472Z,19.10
2019-04-24T18:49:06.623Z,18.90
2019-04-24T18:51:33.553Z,19.10
2019-04-24T18:54:01.910Z,18.80
2019-04-24T18:56:28.358Z,18.60
2019-04-24T18:58:55.002Z,18.40
2019-04-24T19:01:22.677Z,18.60
2019-04-24T19:03:52.033Z,18.20
2019-04-24T19:06:30.822Z,18.20
2019-04-24T19:08:48.998Z,18.00
2019-04-24T19:11:15.858Z,17.80
2019-04-24T19:13:42.726Z,18.00
2019-04-24T19:16:09.523Z,17.90
2019-04-24T19:18:36.141Z,17.90
2019-04-24T19:21:03.622Z,17.90
2019-04-24T19:23:31.570Z,17.70
2019-04-24T19:25:58.520Z,17.50
2019-04-24T19:28:25.391Z,16.50
2019-04-24T19:30:53.974Z,16.60
2019-04-24T19:33:20.600Z,17.20
2019-04-24T19:35:47.239Z,16.90
2019-04-24T19:38:13.853Z,17.00
2019-04-24T19:40:42.392Z,16.90
2019-04-24T19:43:08.795Z,16.30
2019-04-24T19:45:35.429Z,16.30
2019-04-24T19:48:04.001Z,16.30
2019-04-24T19:50:32.120Z,16.50
2019-04-24T19:52:58.782Z,16.40
2019-04-24T19:55:25.666Z,16.40
2019-04-24T19:57:52.517Z,16.50
2019-04-24T20:00:19.143Z,16.80
2019-04-24T20:02:46.690Z,16.70
2019-04-24T20:05:16.784Z,16.20
2019-04-24T20:07:42.002Z,15.80
2019-04-24T20:10:08.707Z,16.00
2019-04-24T20:12:35.267Z,16.10
2019-04-24T20:15:04.973Z,15.70
2019-04-24T20:17:31.948Z,16.10
2019-04-24T20:19:59.234Z,15.80
2019-04-24T20:22:27.651Z,15.70
2019-04-24T20:24:56.824Z,15.60
2019-04-24T20:27:24.157Z,15.80
2019-04-24T20:29:53.055Z,16.00
2019-04-24T20:32:20.440Z,16.10
2019-04-24T20:34:51.757Z,16.10
2019-04-24T20:37:18.549Z,16.10
2019-04-24T20:39:45.405Z,15.60
2019-04-24T20:42:15.113Z,15.70
2019-04-24T20:47:33.363Z,15.40
2019-04-24T20:50:01.946Z,14.90
2019-04-24T20:52:32.921Z,15.30
2019-04-24T20:55:02.918Z,15.40
2019-04-24T20:57:34.834Z,15.10
2019-04-24T21:00:05.459Z,14.90
2019-04-24T21:02:35.750Z,14.90
2019-04-24T21:05:05.087Z,14.60
2019-04-24T21:07:34.278Z,14.70
2019-04-24T21:10:04.181Z,14.90
2019-04-24T21:12:33.329Z,15.30
2019-04-24T21:15:03.036Z,15.00
2019-04-24T21:17:34.500Z,14.70
2019-04-24T21:20:03.685Z,15.00
2019-04-24T21:22:35.733Z,14.70
2019-04-24T21:25:03.887Z,15.00
2019-04-24T21:27:34.824Z,14.90
2019-04-24T21:30:07.892Z,14.90
2019-04-24T21:32:36.206Z,14.70
2019-04-24T21:35:16.430Z,13.80
2019-04-24T21:37:43.636Z,13.90
2019-04-24T21:40:12.358Z,14.00
2019-04-24T21:42:41.804Z,14.40
2019-04-24T21:45:11.564Z,14.70
2019-04-24T21:47:42.116Z,14.60
2019-04-24T21:50:13.716Z,14.60
2019-04-24T21:52:42.166Z,14.60
2019-04-24T21:55:09.165Z,14.20
2019-04-24T21:57:37.259Z,14.30
2019-04-24T22:00:04.978Z,14.60
2019-04-24T22:02:34.613Z,14.80
2019-04-24T22:05:02.687Z,14.90
2019-04-24T22:07:36.690Z,14.50
2019-04-24T22:10:04.459Z,14.80
2019-04-24T22:12:32.899Z,14.80
2019-04-24T22:15:02.923Z,15.00
2019-04-24T22:17:35.860Z,15.00
2019-04-24T22:20:05.869Z,14.70
2019-04-24T22:22:35.901Z,13.90
2019-04-24T22:25:02.369Z,14.20
2019-04-24T22:27:34.266Z,13.80
2019-04-24T22:30:04.675Z,13.20
2019-04-24T22:32:32.599Z,13.70
2019-04-24T22:34:59.848Z,13.80
2019-04-24T22:40:13.355Z,14.10
2019-04-24T22:42:48.228Z,14.10
2019-04-24T22:45:21.531Z,14.50
2019-04-24T22:47:52.019Z,14.50
2019-04-24T22:50:18.837Z,14.30
2019-04-24T22:52:45.652Z,14.40
2019-04-24T22:55:12.676Z,14.40
2019-04-24T22:57:39.392Z,14.50
2019-04-24T23:00:06.298Z,14.60
2019-04-24T23:02:35.408Z,14.40
2019-04-24T23:05:03.765Z,14.00
2019-04-24T23:07:30.591Z,14.40
2019-04-24T23:09:57.947Z,14.50
2019-04-24T23:12:24.707Z,14.30
2019-04-24T23:14:51.640Z,13.80
2019-04-24T23:17:18.451Z,14.20
2019-04-24T23:19:45.291Z,14.20
2019-04-24T23:22:12.210Z,13.50
2019-04-24T23:24:53.387Z,13.90
2019-04-24T23:27:11.813Z,14.20
2019-04-24T23:29:38.992Z,14.30
2019-04-24T23:32:06.242Z,14.20
2019-04-24T23:34:35.220Z,14.40
2019-04-24T23:37:02.079Z,14.40
2019-04-24T23:39:44.405Z,13.90
2019-04-24T23:42:10.654Z,13.30
2019-04-24T23:44:43.248Z,13.00
2019-04-24T23:47:07.471Z,13.50
2019-04-24T23:49:35.550Z,14.10
2019-04-24T23:52:02.374Z,14.10
2019-04-24T23:54:29.193Z,13.80
2019-04-24T23:56:57.545Z,13.50
2019-04-24T23:59:24.693Z,13.80
